WZZ4040 EPGD-ENGM
Flight info
| Callsign | WZZ4040 |
|---|---|
| Flight time | N/A |
| Altitude | 34000 |
| Route | VAPOS N133 PENOR DCT KSD Z259 ESEBA |
| Aircraft | A321/M-SDE3FGHIRWY/LB1 |
Departure
| Time | N/A |
|---|---|
| Airport | Gdańsk Lech Wałęsa Airport (EPGD) |
Arrival
| Time | 2026-04-30 18:22 |
|---|---|
| Airport | Oslo-Gardermoen International Airport (ENGM) |
| Time | Latitude | Longitude | Altitude | Speed | Heading |
|---|---|---|---|---|---|
| 2026-04-30 17:44 | 57.87722 | 14.90259 | 34357 ft | 421 kts | 331° |
| 2026-04-30 17:47 | 58.08924 | 14.66931 | 34343 ft | 422 kts | 330° |
| 2026-04-30 17:48 | 58.26366 | 14.47475 | 34366 ft | 422 kts | 330° |
| 2026-04-30 17:50 | 58.43455 | 14.28228 | 34343 ft | 422 kts | 330° |
| 2026-04-30 17:52 | 58.58569 | 14.10985 | 34363 ft | 421 kts | 330° |
| 2026-04-30 17:54 | 58.81083 | 13.85018 | 34351 ft | 419 kts | 329° |
| 2026-04-30 17:55 | 58.90946 | 13.73504 | 33103 ft | 404 kts | 330° |
| 2026-04-30 17:56 | 59.00341 | 13.62466 | 31540 ft | 389 kts | 330° |
| 2026-04-30 17:57 | 59.07212 | 13.54363 | 30418 ft | 380 kts | 330° |
| 2026-04-30 17:58 | 59.14170 | 13.46111 | 28860 ft | 405 kts | 329° |
| 2026-04-30 17:59 | 59.23718 | 13.34703 | 26726 ft | 397 kts | 329° |
| 2026-04-30 18:00 | 59.33004 | 13.23558 | 24749 ft | 386 kts | 329° |
| 2026-04-30 18:00 | 59.39812 | 13.15334 | 23242 ft | 380 kts | 328° |
| 2026-04-30 18:01 | 59.44281 | 13.09915 | 22347 ft | 373 kts | 328° |
| 2026-04-30 18:02 | 59.50928 | 13.01820 | 22315 ft | 376 kts | 328° |
| 2026-04-30 18:02 | 59.57597 | 12.93644 | 22309 ft | 376 kts | 327° |
| 2026-04-30 18:03 | 59.64234 | 12.85492 | 22310 ft | 376 kts | 327° |
| 2026-04-30 18:04 | 59.70818 | 12.77371 | 21828 ft | 362 kts | 327° |
| 2026-04-30 18:05 | 59.78998 | 12.67206 | 20821 ft | 335 kts | 327° |
| 2026-04-30 18:06 | 59.86695 | 12.57590 | 19323 ft | 321 kts | 326° |
| 2026-04-30 18:07 | 59.94130 | 12.48271 | 17757 ft | 310 kts | 326° |
| 2026-04-30 18:08 | 59.99480 | 12.41516 | 16829 ft | 298 kts | 326° |
| 2026-04-30 18:09 | 60.05522 | 12.29355 | 15654 ft | 313 kts | 309° |
| 2026-04-30 18:10 | 60.11037 | 12.16126 | 14073 ft | 307 kts | 309° |
| 2026-04-30 18:11 | 60.15411 | 12.05636 | 12656 ft | 303 kts | 309° |
| 2026-04-30 18:11 | 60.19058 | 11.96863 | 11489 ft | 300 kts | 308° |
| 2026-04-30 18:12 | 60.23022 | 11.87189 | 10267 ft | 297 kts | 309° |
| 2026-04-30 18:13 | 60.25646 | 11.80803 | 9388 ft | 295 kts | 309° |
| 2026-04-30 18:13 | 60.29096 | 11.72397 | 8238 ft | 290 kts | 309° |
| 2026-04-30 18:14 | 60.31240 | 11.64664 | 7252 ft | 259 kts | 294° |
| 2026-04-30 18:15 | 60.33349 | 11.54780 | 5988 ft | 254 kts | 293° |
| 2026-04-30 18:15 | 60.35313 | 11.45504 | 4705 ft | 231 kts | 292° |
| 2026-04-30 18:16 | 60.36537 | 11.39720 | 4044 ft | 223 kts | 292° |
| 2026-04-30 18:16 | 60.37744 | 11.33962 | 3518 ft | 216 kts | 292° |
| 2026-04-30 18:17 | 60.38300 | 11.31304 | 3524 ft | 195 kts | 291° |
| 2026-04-30 18:17 | 60.38816 | 11.28842 | 3500 ft | 187 kts | 291° |
| 2026-04-30 18:17 | 60.38623 | 11.23949 | 3502 ft | 183 kts | 234° |
| 2026-04-30 18:18 | 60.37738 | 11.21981 | 3521 ft | 197 kts | 229° |
| 2026-04-30 18:18 | 60.36779 | 11.19927 | 3506 ft | 202 kts | 229° |
| 2026-04-30 18:18 | 60.35802 | 11.17916 | 3481 ft | 205 kts | 221° |
| 2026-04-30 18:18 | 60.34552 | 11.16658 | 3298 ft | 203 kts | 199° |
| 2026-04-30 18:19 | 60.33215 | 11.15890 | 3059 ft | 191 kts | 198° |
| 2026-04-30 18:19 | 60.31969 | 11.15176 | 2821 ft | 179 kts | 199° |
| 2026-04-30 18:19 | 60.30819 | 11.14511 | 2599 ft | 165 kts | 198° |
| 2026-04-30 18:19 | 60.29770 | 11.13902 | 2387 ft | 152 kts | 198° |
| 2026-04-30 18:20 | 60.28774 | 11.13323 | 2182 ft | 147 kts | 198° |
| 2026-04-30 18:20 | 60.27798 | 11.12756 | 1987 ft | 145 kts | 198° |
| 2026-04-30 18:20 | 60.26841 | 11.12200 | 1794 ft | 144 kts | 200° |
| 2026-04-30 18:20 | 60.25883 | 11.11645 | 1605 ft | 142 kts | 199° |
| 2026-04-30 18:21 | 60.24938 | 11.11102 | 1391 ft | 141 kts | 197° |
| 2026-04-30 18:21 | 60.23982 | 11.10588 | 1225 ft | 143 kts | 195° |
| 2026-04-30 18:21 | 60.23022 | 11.10004 | 1056 ft | 142 kts | 196° |
| 2026-04-30 18:21 | 60.22077 | 11.09445 | 828 ft | 142 kts | 196° |
| 2026-04-30 18:22 | 60.21137 | 11.08898 | 698 ft | 137 kts | 197° |
| 2026-04-30 18:22 | 60.19860 | 11.08156 | 675 ft | 42 kts | 195° |
| 2026-04-30 18:22 | 60.19716 | 11.08118 | 674 ft | 19 kts | 179° |
| 2026-04-30 18:23 | 60.19595 | 11.08182 | 674 ft | 16 kts | 133° |
| 2026-04-30 18:23 | 60.19572 | 11.08285 | 674 ft | 0 kts | 107° |
| 2026-04-30 18:23 | 60.19567 | 11.08315 | 675 ft | 5 kts | 107° |
| 2026-04-30 18:24 | 60.19559 | 11.08522 | 678 ft | 8 kts | 52° |
| 2026-04-30 18:24 | 60.19603 | 11.08573 | 676 ft | 8 kts | 18° |
| 2026-04-30 18:24 | 60.19676 | 11.08616 | 678 ft | 14 kts | 16° |
| 2026-04-30 18:25 | 60.19770 | 11.08670 | 679 ft | 14 kts | 16° |
| 2026-04-30 18:25 | 60.19815 | 11.08981 | 681 ft | 13 kts | 105° |
| 2026-04-30 18:25 | 60.19793 | 11.09141 | 680 ft | 12 kts | 106° |
| 2026-04-30 18:26 | 60.19729 | 11.09585 | 683 ft | 18 kts | 106° |
| 2026-04-30 18:26 | 60.19695 | 11.09801 | 685 ft | 13 kts | 106° |
| 2026-04-30 18:26 | 60.19676 | 11.09936 | 680 ft | 7 kts | 105° |
| 2026-04-30 18:27 | 60.19670 | 11.09976 | 685 ft | 0 kts | 105° |